createdAt,value
2018-10-03T00:01:20.162Z,5.30
2018-10-03T00:03:48.611Z,6.40
2018-10-03T00:06:16.713Z,5.57
2018-10-03T00:08:44.841Z,6.87
2018-10-03T00:11:12.958Z,4.27
2018-10-03T00:13:41.068Z,9.20
2018-10-03T00:16:09.194Z,10.67
2018-10-03T00:18:37.287Z,5.90
2018-10-03T00:21:05.535Z,4.57
2018-10-03T00:23:33.827Z,5.50
2018-10-03T00:26:01.931Z,6.20
2018-10-03T00:28:30.092Z,6.00
2018-10-03T00:30:58.182Z,5.90
2018-10-03T00:33:26.268Z,9.07
2018-10-03T00:35:54.369Z,6.50
2018-10-03T00:38:22.610Z,7.43
2018-10-03T00:40:50.703Z,5.93
2018-10-03T00:43:18.790Z,19.23
2018-10-03T00:45:46.878Z,5.33
2018-10-03T00:48:14.958Z,7.57
2018-10-03T00:50:43.036Z,4.40
2018-10-03T00:53:11.141Z,6.83
2018-10-03T00:55:39.345Z,5.10
2018-10-03T00:58:07.442Z,7.50
2018-10-03T01:00:35.522Z,6.60
2018-10-03T01:03:03.638Z,5.87
2018-10-03T01:05:31.726Z,5.77
2018-10-03T01:07:59.882Z,5.13
2018-10-03T01:10:27.958Z,7.27
2018-10-03T01:12:56.078Z,4.90
2018-10-03T01:15:24.182Z,5.00
2018-10-03T01:17:52.277Z,5.30
2018-10-03T01:20:20.370Z,7.07
2018-10-03T01:22:48.469Z,4.77
2018-10-03T01:25:16.622Z,5.47
2018-10-03T01:27:44.727Z,5.17
2018-10-03T01:30:12.807Z,5.63
2018-10-03T01:32:40.899Z,5.30
2018-10-03T01:35:08.986Z,6.50
2018-10-03T01:37:37.082Z,5.00
2018-10-03T01:40:05.220Z,4.90
2018-10-03T01:42:33.308Z,4.50
2018-10-03T01:45:01.396Z,4.93
2018-10-03T01:47:29.486Z,6.03
2018-10-03T01:49:57.582Z,6.07
2018-10-03T01:52:25.692Z,5.73
2018-10-03T01:54:53.794Z,4.53
2018-10-03T01:57:21.879Z,5.80
2018-10-03T01:59:49.965Z,9.80
2018-10-03T02:02:18.582Z,5.00
2018-10-03T02:04:46.694Z,9.50
2018-10-03T02:07:14.775Z,4.93
2018-10-03T02:09:42.870Z,7.47
2018-10-03T02:12:10.958Z,5.77
2018-10-03T02:14:39.057Z,5.07
2018-10-03T02:17:07.150Z,6.20
2018-10-03T02:19:35.244Z,8.23
2018-10-03T02:22:03.336Z,7.20
2018-10-03T02:24:31.434Z,6.10
2018-10-03T02:26:59.529Z,6.77
2018-10-03T02:29:27.623Z,7.13
2018-10-03T02:31:55.755Z,6.70
2018-10-03T02:34:23.814Z,6.30
2018-10-03T02:36:51.902Z,6.43
2018-10-03T02:39:20.203Z,6.10
2018-10-03T02:41:48.291Z,5.33
2018-10-03T02:44:16.362Z,5.70
2018-10-03T02:46:44.443Z,6.00
2018-10-03T02:49:12.534Z,4.97
2018-10-03T02:51:40.621Z,5.30
2018-10-03T02:54:08.710Z,5.50
2018-10-03T02:56:36.785Z,5.50
2018-10-03T02:59:04.932Z,5.27
2018-10-03T03:01:33.046Z,5.80
2018-10-03T03:04:01.071Z,5.40
2018-10-03T03:06:29.171Z,5.70
2018-10-03T03:08:57.239Z,6.07
2018-10-03T03:11:25.321Z,5.30
2018-10-03T03:13:53.419Z,6.30
2018-10-03T03:16:21.514Z,5.70
2018-10-03T03:18:49.598Z,4.60
2018-10-03T03:21:17.843Z,4.37
2018-10-03T03:23:45.931Z,3.80
2018-10-03T03:26:14.015Z,4.07
2018-10-03T03:28:42.106Z,4.70
2018-10-03T03:31:10.186Z,4.70
2018-10-03T03:33:38.286Z,4.80
2018-10-03T03:36:06.366Z,6.50
2018-10-03T03:38:34.606Z,3.47
2018-10-03T03:41:02.694Z,5.80
2018-10-03T03:43:30.790Z,3.90
2018-10-03T03:45:59.058Z,3.33
2018-10-03T03:48:27.146Z,4.60
2018-10-03T03:50:55.218Z,5.90
2018-10-03T03:53:23.306Z,4.07
2018-10-03T03:55:51.397Z,4.47
2018-10-03T03:58:19.490Z,3.90
2018-10-03T04:00:47.774Z,3.30
2018-10-03T04:03:15.870Z,3.63
2018-10-03T04:05:43.967Z,3.10
2018-10-03T04:08:12.062Z,4.13
2018-10-03T04:10:40.359Z,4.40
2018-10-03T04:13:08.455Z,5.90
2018-10-03T04:15:36.584Z,3.17
2018-10-03T04:18:04.682Z,2.97
2018-10-03T04:20:32.770Z,3.00
2018-10-03T04:23:00.868Z,2.80
2018-10-03T04:25:28.961Z,4.60
2018-10-03T04:27:57.048Z,4.17
2018-10-03T04:30:25.140Z,4.50
2018-10-03T04:32:53.238Z,5.20
2018-10-03T04:35:21.351Z,4.80
2018-10-03T04:37:49.450Z,3.77
2018-10-03T04:40:17.580Z,4.50
2018-10-03T04:42:45.654Z,3.10
2018-10-03T04:45:13.739Z,7.10
2018-10-03T04:47:41.854Z,4.83
2018-10-03T04:50:09.954Z,5.43
2018-10-03T04:52:38.041Z,3.67
2018-10-03T04:55:06.148Z,4.90
2018-10-03T04:57:34.234Z,3.53
2018-10-03T05:00:02.359Z,3.13
2018-10-03T05:02:30.446Z,3.50
2018-10-03T05:04:58.536Z,4.10
2018-10-03T05:07:26.622Z,3.83
2018-10-03T05:09:54.706Z,4.23
2018-10-03T05:12:22.822Z,3.30
2018-10-03T05:14:51.227Z,4.63
2018-10-03T05:17:19.301Z,4.67
2018-10-03T05:19:47.402Z,4.33
2018-10-03T05:22:15.490Z,5.03
2018-10-03T05:24:43.589Z,6.53
2018-10-03T05:27:11.661Z,3.97
2018-10-03T05:29:39.758Z,3.90
2018-10-03T05:32:07.834Z,3.97
2018-10-03T05:34:35.946Z,3.60
2018-10-03T05:37:04.032Z,5.10
2018-10-03T05:39:32.130Z,4.07
2018-10-03T05:42:00.214Z,3.33
2018-10-03T05:44:28.319Z,3.37
2018-10-03T05:46:56.413Z,4.63
2018-10-03T05:49:24.502Z,3.80
2018-10-03T05:51:52.588Z,5.20
2018-10-03T05:54:20.686Z,5.27
2018-10-03T05:56:48.958Z,4.25
2018-10-03T05:59:17.059Z,3.50
2018-10-03T06:01:45.141Z,4.53
2018-10-03T06:04:13.232Z,3.40
2018-10-03T06:06:41.539Z,3.70
2018-10-03T06:09:10.955Z,5.60
2018-10-03T06:11:39.222Z,8.40
2018-10-03T06:14:07.599Z,3.83
2018-10-03T06:16:35.678Z,5.63
2018-10-03T06:19:03.787Z,5.33
2018-10-03T06:21:32.114Z,5.13
2018-10-03T06:24:00.237Z,4.77
2018-10-03T06:26:29.186Z,3.97
2018-10-03T06:28:57.403Z,4.63
2018-10-03T06:31:25.532Z,3.67
2018-10-03T06:33:53.638Z,3.10
2018-10-03T06:36:22.006Z,4.73
2018-10-03T06:38:50.082Z,3.33
2018-10-03T06:41:18.208Z,4.10
2018-10-03T06:43:46.298Z,3.60
2018-10-03T06:46:14.390Z,4.07
2018-10-03T06:48:42.483Z,4.00
2018-10-03T06:51:10.583Z,4.47
2018-10-03T06:53:38.688Z,4.07
2018-10-03T06:56:07.114Z,3.77
2018-10-03T06:58:35.212Z,3.30
2018-10-03T07:01:03.359Z,4.53
2018-10-03T07:03:31.450Z,3.93
2018-10-03T07:05:59.562Z,3.10
2018-10-03T07:08:27.901Z,3.60
2018-10-03T07:10:55.996Z,4.80
2018-10-03T07:13:24.155Z,2.70
2018-10-03T07:15:52.252Z,2.90
2018-10-03T07:18:20.413Z,5.30
2018-10-03T07:20:48.469Z,4.60
2018-10-03T07:23:16.559Z,3.73
2018-10-03T07:25:44.768Z,3.97
2018-10-03T07:28:13.441Z,3.30
2018-10-03T07:30:41.543Z,3.83
2018-10-03T07:33:09.631Z,3.77
2018-10-03T07:35:37.742Z,3.13
2018-10-03T07:38:05.830Z,3.10
2018-10-03T07:40:33.941Z,2.80
2018-10-03T07:43:02.039Z,3.40
2018-10-03T07:45:30.146Z,4.07
2018-10-03T07:47:58.289Z,3.87
2018-10-03T07:50:26.338Z,2.90
2018-10-03T07:52:54.453Z,4.10
2018-10-03T07:55:22.539Z,4.50
2018-10-03T07:57:50.622Z,9.70
2018-10-03T08:00:23.261Z,3.60
2018-10-03T08:02:51.307Z,3.97
2018-10-03T08:05:19.434Z,3.47
2018-10-03T08:07:47.511Z,3.27
2018-10-03T08:10:15.596Z,4.00
2018-10-03T08:12:43.682Z,3.70
2018-10-03T08:15:12.081Z,4.50
2018-10-03T08:17:40.555Z,4.77
2018-10-03T08:20:08.938Z,5.00
2018-10-03T08:22:37.042Z,5.00
2018-10-03T08:25:05.496Z,6.00
2018-10-03T08:27:33.590Z,4.57
2018-10-03T08:30:01.714Z,4.13
2018-10-03T08:32:29.861Z,5.87
2018-10-03T08:34:57.944Z,5.70
2018-10-03T08:37:26.015Z,5.47
2018-10-03T08:39:54.126Z,5.77
2018-10-03T08:42:22.198Z,4.57
2018-10-03T08:44:50.298Z,5.23
2018-10-03T08:47:18.378Z,5.80
2018-10-03T08:49:46.504Z,4.00
2018-10-03T08:52:19.538Z,4.10
2018-10-03T08:54:47.771Z,4.03
2018-10-03T08:57:16.146Z,4.97
2018-10-03T08:59:44.289Z,4.70
2018-10-03T09:02:12.399Z,7.50
2018-10-03T09:04:40.538Z,4.90
2018-10-03T09:07:08.662Z,4.50
2018-10-03T09:09:36.777Z,6.30
2018-10-03T09:12:04.862Z,6.37
2018-10-03T09:14:32.957Z,5.03
2018-10-03T09:17:01.046Z,5.33
2018-10-03T09:19:29.138Z,4.37
2018-10-03T09:21:57.386Z,4.53
2018-10-03T09:24:25.338Z,4.90
2018-10-03T09:26:53.427Z,3.93
2018-10-03T09:29:21.655Z,4.40
2018-10-03T09:31:50.765Z,4.30
2018-10-03T09:34:19.043Z,7.37
2018-10-03T09:36:47.131Z,4.63
2018-10-03T09:39:15.218Z,6.13
2018-10-03T09:41:43.322Z,6.63
2018-10-03T09:44:12.054Z,5.60
2018-10-03T09:46:40.726Z,4.23
2018-10-03T09:49:08.801Z,5.20
2018-10-03T09:51:36.915Z,3.97
2018-10-03T09:54:05.246Z,4.13
2018-10-03T09:56:33.335Z,3.90
2018-10-03T09:59:01.577Z,4.10
2018-10-03T10:01:31.930Z,5.40
2018-10-03T10:04:01.224Z,4.83
2018-10-03T10:06:30.007Z,5.97
2018-10-03T10:08:58.113Z,7.20
2018-10-03T10:11:26.332Z,4.33
2018-10-03T10:13:54.294Z,3.90
2018-10-03T10:16:22.377Z,4.50
2018-10-03T10:18:50.465Z,5.67
2018-10-03T10:21:18.590Z,4.30
2018-10-03T10:23:46.690Z,6.47
2018-10-03T10:26:14.781Z,3.80
2018-10-03T10:28:42.878Z,3.37
2018-10-03T10:31:10.978Z,8.60
2018-10-03T10:33:39.086Z,6.70
2018-10-03T10:36:07.671Z,4.27
2018-10-03T10:38:35.731Z,5.27
2018-10-03T10:41:03.906Z,4.40
2018-10-03T10:43:32.224Z,4.30
2018-10-03T10:46:00.272Z,5.33
2018-10-03T10:48:28.745Z,5.23
2018-10-03T10:50:56.830Z,4.53
2018-10-03T10:53:25.093Z,4.27
2018-10-03T10:55:53.182Z,3.80
2018-10-03T10:58:21.270Z,3.03
2018-10-03T11:00:49.728Z,5.60
2018-10-03T11:03:18.502Z,4.43
2018-10-03T11:05:47.565Z,3.83
2018-10-03T11:08:16.946Z,5.83
2018-10-03T11:10:45.530Z,7.03
2018-10-03T11:13:14.240Z,3.43
2018-10-03T11:15:42.840Z,3.33
2018-10-03T11:18:10.958Z,3.10
2018-10-03T11:20:40.067Z,3.90
2018-10-03T11:23:09.042Z,3.60
2018-10-03T11:25:37.352Z,4.03
2018-10-03T11:28:06.574Z,3.40
2018-10-03T11:30:34.979Z,4.63
2018-10-03T11:33:03.171Z,3.87
2018-10-03T11:35:31.622Z,3.50
2018-10-03T11:38:01.103Z,3.67
2018-10-03T11:40:29.315Z,6.60
2018-10-03T11:42:57.664Z,3.57
2018-10-03T11:45:26.545Z,4.30
2018-10-03T11:47:54.837Z,2.93
2018-10-03T11:50:23.647Z,4.63
2018-10-03T11:52:52.201Z,5.10
2018-10-03T11:55:20.783Z,3.37
2018-10-03T11:57:49.167Z,5.67
2018-10-03T12:00:17.545Z,3.93
2018-10-03T12:02:45.944Z,2.87
2018-10-03T12:05:14.020Z,5.03
2018-10-03T12:07:42.296Z,3.00
2018-10-03T12:10:10.575Z,4.23
2018-10-03T12:12:38.838Z,4.80
2018-10-03T12:15:07.267Z,3.43
2018-10-03T12:17:35.555Z,3.27
2018-10-03T12:20:03.785Z,2.93
2018-10-03T12:22:31.991Z,6.77
2018-10-03T12:25:00.218Z,4.50
2018-10-03T12:27:28.346Z,4.37
2018-10-03T12:29:56.530Z,3.60
2018-10-03T12:32:24.778Z,3.83
2018-10-03T12:34:52.880Z,7.50
2018-10-03T12:37:20.967Z,4.20
2018-10-03T12:39:49.163Z,3.60
2018-10-03T12:42:17.338Z,3.73
2018-10-03T12:44:45.478Z,3.60
2018-10-03T12:47:13.628Z,4.27
2018-10-03T12:49:41.740Z,4.83
2018-10-03T12:52:10.142Z,4.30
2018-10-03T12:54:38.270Z,5.83
2018-10-03T12:57:06.328Z,4.63
2018-10-03T12:59:34.407Z,3.43
2018-10-03T13:02:02.489Z,5.23
2018-10-03T13:04:30.642Z,4.37
2018-10-03T13:06:58.848Z,5.10
2018-10-03T13:09:26.999Z,7.70
2018-10-03T13:11:55.098Z,3.00
2018-10-03T13:14:23.203Z,3.63
2018-10-03T13:16:51.270Z,7.77
2018-10-03T13:19:19.361Z,3.33
2018-10-03T13:21:47.730Z,4.07
2018-10-03T13:24:15.848Z,2.77
2018-10-03T13:26:43.899Z,6.23
2018-10-03T13:29:11.977Z,3.00
2018-10-03T13:31:40.312Z,5.57
2018-10-03T13:34:08.415Z,4.00
2018-10-03T13:36:36.498Z,4.90
2018-10-03T13:39:06.763Z,4.17
2018-10-03T13:41:34.956Z,3.50
2018-10-03T13:44:03.137Z,4.03
2018-10-03T13:46:31.271Z,4.10
2018-10-03T13:48:59.354Z,4.40
2018-10-03T13:51:27.756Z,3.33
2018-10-03T13:53:56.064Z,3.80
2018-10-03T13:56:24.255Z,5.47
2018-10-03T13:58:52.322Z,3.40
2018-10-03T14:01:20.398Z,5.50
2018-10-03T14:03:48.494Z,4.57
2018-10-03T14:06:16.559Z,4.77
2018-10-03T14:08:44.658Z,3.73
2018-10-03T14:11:12.754Z,5.10
2018-10-03T14:13:40.812Z,5.03
2018-10-03T14:16:08.918Z,5.23
2018-10-03T14:18:37.061Z,7.43
2018-10-03T14:21:05.094Z,5.87
2018-10-03T14:23:33.182Z,4.30
2018-10-03T14:26:01.270Z,4.73
2018-10-03T14:28:29.431Z,4.60
2018-10-03T14:30:57.789Z,3.77
2018-10-03T14:33:26.204Z,3.80
2018-10-03T14:35:54.369Z,3.33
2018-10-03T14:38:22.668Z,3.57
2018-10-03T14:40:50.761Z,5.43
2018-10-03T14:43:18.864Z,2.70
2018-10-03T14:45:46.929Z,4.40
2018-10-03T14:48:15.049Z,3.90
2018-10-03T14:50:43.289Z,4.17
2018-10-03T14:53:11.361Z,3.30
2018-10-03T14:55:39.639Z,4.50
2018-10-03T14:58:07.729Z,4.30
2018-10-03T15:00:35.817Z,3.90
2018-10-03T15:03:03.911Z,4.37
2018-10-03T15:05:32.200Z,4.00
2018-10-03T15:08:00.297Z,7.70
2018-10-03T15:10:28.403Z,9.10
2018-10-03T15:12:56.559Z,6.23
2018-10-03T15:15:24.594Z,8.53
2018-10-03T15:17:52.807Z,4.23
2018-10-03T15:20:20.917Z,4.63
2018-10-03T15:22:49.007Z,4.87
2018-10-03T15:25:17.266Z,5.60
2018-10-03T15:27:45.482Z,5.30
2018-10-03T15:30:13.632Z,4.13
2018-10-03T15:32:41.637Z,5.40
2018-10-03T15:35:09.729Z,4.37
2018-10-03T15:37:37.822Z,4.03
2018-10-03T15:40:05.934Z,3.43
2018-10-03T15:42:34.014Z,3.47
2018-10-03T15:45:02.115Z,4.13
2018-10-03T15:47:30.212Z,5.30
2018-10-03T15:49:58.326Z,3.93
2018-10-03T15:52:26.422Z,3.73
2018-10-03T15:54:54.523Z,5.30
2018-10-03T15:57:22.590Z,3.70
2018-10-03T15:59:50.700Z,5.90
2018-10-03T16:02:18.774Z,5.73
2018-10-03T16:04:46.854Z,6.17
2018-10-03T16:07:14.939Z,8.30
2018-10-03T16:09:43.065Z,7.13
2018-10-03T16:12:11.110Z,6.07
2018-10-03T16:14:39.209Z,8.70
2018-10-03T16:17:07.502Z,9.37
2018-10-03T16:19:35.599Z,5.57
2018-10-03T16:22:03.765Z,6.53
2018-10-03T16:24:32.054Z,3.87
2018-10-03T16:27:00.147Z,5.13
2018-10-03T16:29:28.231Z,4.87
2018-10-03T16:31:56.337Z,6.80
2018-10-03T16:34:24.409Z,6.00
2018-10-03T16:36:52.494Z,10.53
2018-10-03T16:39:20.754Z,7.10
2018-10-03T16:41:48.852Z,6.80
2018-10-03T16:44:16.926Z,5.33
2018-10-03T16:46:45.006Z,6.70
2018-10-03T16:49:13.103Z,6.60
2018-10-03T16:51:41.204Z,11.67
2018-10-03T16:54:09.484Z,7.37
2018-10-03T16:56:37.574Z,10.13
2018-10-03T16:59:05.801Z,5.77
2018-10-03T17:01:33.902Z,9.67
2018-10-03T17:04:01.975Z,9.33
2018-10-03T17:06:30.065Z,10.10
2018-10-03T17:08:58.179Z,9.00
2018-10-03T17:11:26.258Z,10.57
2018-10-03T17:14:34.728Z,10.30
2018-10-03T17:17:02.834Z,6.97
2018-10-03T17:19:30.918Z,7.47
2018-10-03T17:21:59.462Z,10.07
2018-10-03T17:24:28.766Z,7.87
2018-10-03T17:26:56.885Z,12.80
2018-10-03T17:29:24.984Z,11.33
2018-10-03T17:31:53.110Z,12.70
2018-10-03T17:34:21.198Z,10.40
2018-10-03T17:36:50.496Z,8.35
2018-10-03T17:39:18.913Z,12.53
2018-10-03T17:41:47.106Z,8.23
2018-10-03T17:44:16.194Z,10.50
2018-10-03T17:46:44.662Z,13.93
2018-10-03T17:49:12.739Z,7.30
2018-10-03T17:51:40.903Z,9.70
2018-10-03T17:54:08.975Z,6.97
2018-10-03T17:56:37.163Z,5.80
2018-10-03T17:59:05.398Z,6.53
2018-10-03T18:01:34.930Z,7.30
2018-10-03T18:04:03.007Z,9.33
2018-10-03T18:06:31.126Z,8.93
2018-10-03T18:08:59.611Z,9.13
2018-10-03T18:11:27.726Z,12.17
2018-10-03T18:13:55.850Z,10.30
2018-10-03T18:16:23.910Z,7.07
2018-10-03T18:18:52.281Z,8.90
2018-10-03T18:21:20.513Z,9.37
2018-10-03T18:23:48.600Z,10.80
2018-10-03T18:26:16.682Z,9.30
2018-10-03T18:28:44.792Z,12.00
2018-10-03T18:31:12.926Z,10.90
2018-10-03T18:33:40.959Z,11.20
2018-10-03T18:36:09.050Z,13.93
2018-10-03T18:38:37.133Z,7.40
2018-10-03T18:41:05.402Z,10.87
2018-10-03T18:43:33.482Z,11.83
2018-10-03T18:46:01.608Z,17.47
2018-10-03T18:48:29.941Z,12.20
2018-10-03T18:50:58.045Z,10.00
2018-10-03T18:53:26.124Z,7.70
2018-10-03T18:55:54.211Z,8.70
2018-10-03T18:58:22.301Z,9.97
2018-10-03T19:00:50.457Z,7.57
2018-10-03T19:03:18.526Z,9.87
2018-10-03T19:05:46.661Z,15.57
2018-10-03T19:08:14.722Z,12.20
2018-10-03T19:10:42.823Z,17.13
2018-10-03T19:13:10.902Z,13.67
2018-10-03T19:15:39.028Z,11.50
2018-10-03T19:18:07.133Z,15.20
2018-10-03T19:20:35.469Z,9.93
2018-10-03T19:23:03.726Z,10.20
2018-10-03T19:25:31.827Z,13.80
2018-10-03T19:27:59.918Z,11.30
2018-10-03T19:30:28.007Z,22.03
2018-10-03T19:32:56.093Z,8.67
2018-10-03T19:35:25.503Z,12.00
2018-10-03T19:37:53.859Z,9.77
2018-10-03T19:40:21.966Z,12.93
2018-10-03T19:42:50.070Z,19.10
2018-10-03T19:45:18.259Z,15.57
2018-10-03T19:47:46.479Z,12.43
2018-10-03T19:50:14.722Z,15.27
2018-10-03T19:52:42.818Z,11.43
2018-10-03T19:55:11.274Z,10.63
2018-10-03T19:57:39.361Z,12.87
2018-10-03T20:00:07.651Z,12.43
2018-10-03T20:02:35.754Z,11.17
2018-10-03T20:05:03.826Z,8.80
2018-10-03T20:07:31.907Z,14.07
2018-10-03T20:09:59.999Z,10.97
2018-10-03T20:12:28.082Z,11.20
2018-10-03T20:14:56.161Z,9.80
2018-10-03T20:17:24.258Z,11.90
2018-10-03T20:19:52.407Z,9.63
2018-10-03T20:22:20.494Z,8.87
2018-10-03T20:24:48.599Z,13.90
2018-10-03T20:27:16.701Z,14.37
2018-10-03T20:29:44.878Z,12.43
2018-10-03T20:32:12.962Z,12.20
2018-10-03T20:34:41.043Z,14.03
2018-10-03T20:37:09.130Z,11.90
2018-10-03T20:39:37.229Z,12.10
2018-10-03T20:42:05.316Z,9.53
2018-10-03T20:44:33.395Z,19.03
2018-10-03T20:47:01.478Z,17.50
2018-10-03T20:49:29.558Z,10.30
2018-10-03T20:51:57.647Z,8.93
2018-10-03T20:54:25.878Z,10.10
2018-10-03T20:56:53.833Z,15.27
2018-10-03T20:59:21.950Z,14.07
2018-10-03T21:01:50.026Z,14.20
2018-10-03T21:04:18.202Z,13.40
2018-10-03T21:06:46.295Z,15.40
2018-10-03T21:09:14.394Z,13.07
2018-10-03T21:11:42.481Z,9.50
2018-10-03T21:14:10.611Z,13.90
2018-10-03T21:16:38.742Z,14.13
2018-10-03T21:19:07.033Z,12.83
2018-10-03T21:21:35.211Z,16.53
2018-10-03T21:24:03.303Z,14.07
2018-10-03T21:26:31.386Z,11.20
2018-10-03T21:28:59.495Z,12.57
2018-10-03T21:31:27.774Z,9.93
2018-10-03T21:33:55.892Z,12.23
2018-10-03T21:36:23.981Z,8.80
2018-10-03T21:38:52.135Z,13.53
2018-10-03T21:41:20.366Z,8.27
2018-10-03T21:43:48.730Z,14.57
2018-10-03T21:46:17.083Z,10.40
2018-10-03T21:48:45.161Z,9.50
2018-10-03T21:51:13.262Z,15.37
2018-10-03T21:53:41.359Z,10.83
2018-10-03T21:56:09.458Z,8.50
2018-10-03T21:58:37.552Z,10.80
2018-10-03T22:01:05.821Z,12.57
2018-10-03T22:03:33.926Z,11.37
2018-10-03T22:06:02.022Z,11.07
2018-10-03T22:08:30.126Z,8.27
2018-10-03T22:10:58.211Z,10.47
2018-10-03T22:13:26.526Z,11.87
2018-10-03T22:15:54.619Z,16.33
2018-10-03T22:18:22.726Z,14.23
2018-10-03T22:20:50.841Z,13.87
2018-10-03T22:23:18.930Z,9.37
2018-10-03T22:25:47.030Z,8.60
2018-10-03T22:28:15.128Z,13.70
2018-10-03T22:30:43.221Z,13.87
2018-10-03T22:33:11.308Z,8.50
2018-10-03T22:35:39.406Z,9.57
2018-10-03T22:38:07.494Z,12.10
2018-10-03T22:40:35.591Z,8.50
2018-10-03T22:43:03.678Z,12.60
2018-10-03T22:45:31.772Z,7.30
2018-10-03T22:47:59.866Z,9.60
2018-10-03T22:50:27.986Z,9.50
2018-10-03T22:52:56.071Z,8.57
2018-10-03T22:55:24.171Z,10.03
2018-10-03T22:57:52.257Z,10.20
2018-10-03T23:00:20.369Z,8.00
2018-10-03T23:02:48.454Z,10.13
2018-10-03T23:05:16.590Z,12.70
2018-10-03T23:07:44.708Z,10.85
2018-10-03T23:10:12.801Z,8.40
2018-10-03T23:12:40.894Z,10.63
2018-10-03T23:15:09.009Z,9.50
2018-10-03T23:17:37.122Z,8.50
2018-10-03T23:20:05.211Z,8.77
2018-10-03T23:22:33.290Z,7.53
2018-10-03T23:25:01.388Z,8.30
2018-10-03T23:27:29.464Z,8.70
2018-10-03T23:29:57.560Z,10.77
2018-10-03T23:32:25.638Z,9.83
2018-10-03T23:34:53.728Z,9.03
2018-10-03T23:37:21.819Z,10.37
2018-10-03T23:39:49.906Z,7.47
2018-10-03T23:42:18.002Z,7.57
2018-10-03T23:44:46.099Z,11.00
2018-10-03T23:47:14.166Z,7.07
2018-10-03T23:49:42.246Z,9.53
